KDKK/DKK METAR and TAF weather

Enter ICAO airport designator
Station Type Date Time Source
KDKK METAR 2018/04/23 10:53 UTC NOAA

KDKK 231053Z AUTO 15015KT 10SM CLR 09/M06 A3034 RMK AO2 SLP277 T00941061 $


Station Type Date Time Source
KDKK Decoded METAR 2018/04/23 10:53 UTC NOAA

CHAUTAUQUA COUNTY/DUNKIRK, NY, United States (KDKK) 42-30N 079-17W 202M
Apr 23, 2018 - 06:53 AM EDT / 2018.04.23 1053 UTC
Wind: from the SSE (150 degrees) at 17 MPH (15 KT):0
Visibility: 10 mile(s):0
Sky conditions: clear
Temperature: 48.9 F (9.4 C)
Dew Point: 21.0 F (-6.1 C)
Relative Humidity: 32%
Pressure (altimeter): 30.34 in. Hg (1027 hPa)
ob: KDKK 231053Z AUTO 15015KT 10SM CLR 09/M06 A3034 RMK AO2 SLP277 T00941061
cycle: 11

Station Type Date Time Source
KDKK TAF UTC NOAA

Error!


Example: see airport list